Time;durP1;ratioP1;P1;durP2;ratioP2;P2;SDS_P1;SDS_P2;PMS_P1;PMS_P2;Temp;Humidity;BMP_temperature;BMP_pressure;BME280_temperature;BME280_humidity;BME280_pressure;Samples;Min_cycle;Max_cycle;Signal;HPM_P1;HPM_P2
2022/10/16 00:00:45;;;;;;;67.55;27.13;;;;;;;;;;6289111;28;20055;-67
2022/10/16 00:04:04;;;;;;;65.95;25.80;;;;;;;;;;6290348;28;20091;-66
2022/10/16 00:07:05;;;;;;;64.95;26.30;;;;;;;;;;6291584;28;20079;-66
2022/10/16 00:10:06;;;;;;;61.20;26.25;;;;;;;;;;6289284;28;20059;-66
2022/10/16 00:13:07;;;;;;;56.78;25.20;;;;;;;;;;6289768;28;20079;-67
2022/10/16 00:16:09;;;;;;;64.38;24.83;;;;;;;;;;6291333;28;20056;-66
2022/10/16 00:19:12;;;;;;;57.00;24.20;;;;;;;;;;6290176;28;20474;-66
2022/10/16 00:22:12;;;;;;;;;;;;;;;;;;6288987;28;20072;-68
2022/10/16 00:25:13;;;;;;;59.88;24.60;;;;;;;;;;6291902;28;19920;-66
2022/10/16 00:28:13;;;;;;;60.65;25.60;;;;;;;;;;6291970;28;20445;-66
2022/10/16 00:31:15;;;;;;;63.22;27.20;;;;;;;;;;6291807;28;20057;-67
2022/10/16 00:34:15;;;;;;;54.80;23.30;;;;;;;;;;6287960;28;20491;-67
2022/10/16 00:37:16;;;;;;;58.38;26.00;;;;;;;;;;6291293;28;20140;-66
2022/10/16 00:40:17;;;;;;;79.75;31.63;;;;;;;;;;6287455;28;20044;-68
2022/10/16 00:43:44;;;;;;;86.60;35.00;;;;;;;;;;6286182;28;20044;-66
2022/10/16 00:46:45;;;;;;;87.70;33.65;;;;;;;;;;6287099;28;20530;-66
2022/10/16 00:49:48;;;;;;;76.28;29.33;;;;;;;;;;6289814;28;20048;-67
2022/10/16 00:52:51;;;;;;;64.40;25.58;;;;;;;;;;6285189;28;20071;-67
2022/10/16 00:55:52;;;;;;;61.80;26.00;;;;;;;;;;6287379;28;20135;-67
2022/10/16 00:58:53;;;;;;;63.10;26.63;;;;;;;;;;6292158;28;20384;-66
2022/10/16 01:01:55;;;;;;;64.07;26.83;;;;;;;;;;6286260;28;20476;-66
2022/10/16 01:04:55;;;;;;;59.75;25.90;;;;;;;;;;6286506;28;20047;-68
2022/10/16 01:08:08;;;;;;;62.60;26.40;;;;;;;;;;6284453;28;20048;-66
2022/10/16 01:11:21;;;;;;;75.80;30.27;;;;;;;;;;6282706;28;20408;-66
2022/10/16 01:14:47;;;;;;;82.85;32.53;;;;;;;;;;6285284;28;20058;-66
2022/10/16 01:17:53;;;;;;;79.03;31.17;;;;;;;;;;6286234;28;20048;-67
2022/10/16 01:21:12;;;;;;;72.90;30.15;;;;;;;;;;6286837;28;20058;-65
2022/10/16 01:24:40;;;;;;;86.75;34.25;;;;;;;;;;6283041;28;20048;-66
2022/10/16 01:27:45;;;;;;;87.05;33.80;;;;;;;;;;6280758;28;20044;-66
2022/10/16 01:30:46;;;;;;;83.57;32.45;;;;;;;;;;6285766;28;20048;-66
2022/10/16 01:33:56;;;;;;;80.87;37.13;;;;;;;;;;6286705;28;20523;-67
2022/10/16 01:37:04;;;;;;;79.90;33.72;;;;;;;;;;6288329;28;20399;-65
2022/10/16 01:40:10;;;;;;;76.65;32.80;;;;;;;;;;6285408;28;20061;-68
2022/10/16 01:43:21;;;;;;;84.95;32.83;;;;;;;;;;6285165;28;20048;-66
2022/10/16 01:46:23;;;;;;;84.40;33.33;;;;;;;;;;6283641;28;20048;-66
2022/10/16 01:49:29;;;;;;;72.65;30.58;;;;;;;;;;6282922;28;20049;-68
2022/10/16 01:52:33;;;;;;;70.43;28.83;;;;;;;;;;6284580;28;20457;-68
2022/10/16 01:55:38;;;;;;;64.75;28.92;;;;;;;;;;6288303;28;20098;-66
2022/10/16 01:58:46;;;;;;;73.82;30.95;;;;;;;;;;6285554;28;21280;-65
2022/10/16 02:01:54;;;;;;;77.53;33.33;;;;;;;;;;6286961;28;20079;-65
2022/10/16 02:05:01;;;;;;;84.63;35.80;;;;;;;;;;6291507;28;20151;-65
2022/10/16 02:08:02;;;;;;;73.22;32.03;;;;;;;;;;6284620;28;20056;-68
2022/10/16 02:11:02;;;;;;;68.70;29.88;;;;;;;;;;6283736;28;20056;-65
2022/10/16 02:14:07;;;;;;;71.57;31.00;;;;;;;;;;6284930;28;20398;-65
2022/10/16 02:17:13;;;;;;;64.47;28.10;;;;;;;;;;6281757;28;20126;-66
2022/10/16 02:20:14;;;;;;;72.10;30.92;;;;;;;;;;6285838;28;20041;-66
2022/10/16 02:23:29;;;;;;;74.50;30.63;;;;;;;;;;6289368;28;20053;-68
2022/10/16 02:26:59;;;;;;;77.18;30.67;;;;;;;;;;6283346;28;20110;-66
2022/10/16 02:30:19;;;;;;;75.13;30.65;;;;;;;;;;6281850;28;20382;-65
2022/10/16 02:33:22;;;;;;;68.45;28.98;;;;;;;;;;6285649;28;20109;-68
2022/10/16 02:36:23;;;;;;;65.70;28.63;;;;;;;;;;6287802;28;20040;-65
2022/10/16 02:39:24;;;;;;;82.95;35.83;;;;;;;;;;6293285;28;20419;-66
2022/10/16 02:42:43;;;;;;;80.13;35.87;;;;;;;;;;6291099;28;20600;-65
2022/10/16 02:45:44;;;;;;;75.80;35.00;;;;;;;;;;6287926;28;20043;-66
2022/10/16 02:48:44;;;;;;;72.85;35.85;;;;;;;;;;6290263;28;20569;-65
2022/10/16 02:51:45;;;;;;;86.28;36.35;;;;;;;;;;6288586;28;20122;-66
2022/10/16 02:54:45;;;;;;;73.10;31.58;;;;;;;;;;6286519;28;20115;-67
2022/10/16 02:57:46;;;;;;;77.57;32.92;;;;;;;;;;6286870;28;20055;-66
2022/10/16 03:00:46;;;;;;;75.40;30.02;;;;;;;;;;6288863;28;20068;-66
2022/10/16 03:03:47;;;;;;;74.03;31.65;;;;;;;;;;6289553;28;20045;-68
2022/10/16 03:06:48;;;;;;;71.03;29.95;;;;;;;;;;6289960;28;20041;-66
2022/10/16 03:09:49;;;;;;;74.97;31.98;;;;;;;;;;6291413;28;20082;-66
2022/10/16 03:12:49;;;;;;;78.50;32.95;;;;;;;;;;6288539;28;20105;-65
2022/10/16 03:15:50;;;;;;;80.78;33.00;;;;;;;;;;6287457;28;20048;-67
2022/10/16 03:18:51;;;;;;;77.75;31.63;;;;;;;;;;6286591;28;20037;-67
2022/10/16 03:21:51;;;;;;;77.30;33.17;;;;;;;;;;6285816;28;20094;-66
2022/10/16 03:24:54;;;;;;;79.55;34.22;;;;;;;;;;6285782;28;20055;-66
2022/10/16 03:27:55;;;;;;;92.65;38.88;;;;;;;;;;6285605;28;20139;-66
2022/10/16 03:30:55;;;;;;;92.57;40.00;;;;;;;;;;6289023;28;20098;-65
2022/10/16 03:33:56;;;;;;;93.32;41.05;;;;;;;;;;6287791;28;20044;-66
2022/10/16 03:36:57;;;;;;;94.18;39.95;;;;;;;;;;6284440;28;20037;-66
2022/10/16 03:39:59;;;;;;;101.35;40.58;;;;;;;;;;6287496;28;20467;-65
2022/10/16 03:42:59;;;;;;;91.35;38.95;;;;;;;;;;6290387;28;20488;-66
2022/10/16 03:46:00;;;;;;;84.00;35.22;;;;;;;;;;6291259;28;20426;-66
2022/10/16 03:49:00;;;;;;;85.65;36.05;;;;;;;;;;6287913;28;20044;-65
2022/10/16 03:52:01;;;;;;;83.43;34.28;;;;;;;;;;6287731;28;20053;-67
2022/10/16 03:55:02;;;;;;;82.78;36.25;;;;;;;;;;6289892;28;20079;-66
2022/10/16 03:58:02;;;;;;;93.32;37.10;;;;;;;;;;6288031;28;20052;-66
2022/10/16 04:01:03;;;;;;;93.60;37.92;;;;;;;;;;6288490;28;20478;-66
2022/10/16 04:04:04;;;;;;;108.85;45.10;;;;;;;;;;6285997;28;20067;-67
2022/10/16 04:07:05;;;;;;;86.72;37.08;;;;;;;;;;6285357;28;20435;-66
2022/10/16 04:10:05;;;;;;;86.20;36.53;;;;;;;;;;6282322;28;20048;-66
2022/10/16 04:13:06;;;;;;;87.75;36.10;;;;;;;;;;6286291;28;20100;-67
2022/10/16 04:16:06;;;;;;;89.80;35.95;;;;;;;;;;6284805;28;20048;-66
2022/10/16 04:19:08;;;;;;;86.82;36.33;;;;;;;;;;6289583;28;20494;-66
2022/10/16 04:22:09;;;;;;;91.75;41.50;;;;;;;;;;6286439;28;20158;-66
2022/10/16 04:25:11;;;;;;;78.82;33.05;;;;;;;;;;6285800;28;20075;-67
2022/10/16 04:28:11;;;;;;;;;;;;;;;;;;6286115;28;20049;-67
2022/10/16 04:31:12;;;;;;;93.93;35.03;;;;;;;;;;6284946;28;19935;-66
2022/10/16 04:34:12;;;;;;;81.65;33.90;;;;;;;;;;6284736;28;20055;-68
2022/10/16 04:37:13;;;;;;;69.75;31.15;;;;;;;;;;6282644;28;20072;-65
2022/10/16 04:40:14;;;;;;;72.00;30.13;;;;;;;;;;6286297;28;20449;-65
2022/10/16 04:43:15;;;;;;;69.93;28.93;;;;;;;;;;6286560;28;20044;-65
2022/10/16 04:46:15;;;;;;;69.65;28.98;;;;;;;;;;6285631;28;20506;-65
2022/10/16 04:49:16;;;;;;;72.85;30.05;;;;;;;;;;6285920;28;20052;-66
2022/10/16 04:52:18;;;;;;;79.82;31.33;;;;;;;;;;6289473;28;20045;-65
2022/10/16 04:55:19;;;;;;;81.85;34.30;;;;;;;;;;6283657;28;20040;-66
2022/10/16 04:58:19;;;;;;;84.80;33.50;;;;;;;;;;6284373;28;20476;-65
2022/10/16 05:01:20;;;;;;;93.75;36.20;;;;;;;;;;6289379;28;20114;-68
2022/10/16 05:04:20;;;;;;;98.10;36.38;;;;;;;;;;6289230;28;20047;-67
2022/10/16 05:07:23;;;;;;;110.78;40.45;;;;;;;;;;6283970;28;20045;-66
2022/10/16 05:10:23;;;;;;;;;;;;;;;;;;6290943;28;20047;-68
2022/10/16 05:13:24;;;;;;;96.38;38.35;;;;;;;;;;6288233;28;19924;-64
2022/10/16 05:16:24;;;;;;;111.82;40.78;;;;;;;;;;6285926;28;20423;-65
2022/10/16 05:19:25;;;;;;;91.65;36.28;;;;;;;;;;6288892;28;20036;-67
2022/10/16 05:22:26;;;;;;;95.20;38.05;;;;;;;;;;6285793;28;20043;-67
2022/10/16 05:25:26;;;;;;;95.88;38.20;;;;;;;;;;6287871;28;20167;-65
2022/10/16 05:28:29;;;;;;;116.07;42.20;;;;;;;;;;6286181;28;20041;-66
2022/10/16 05:31:30;;;;;;;103.70;41.28;;;;;;;;;;6287968;28;20068;-67
2022/10/16 05:34:31;;;;;;;99.03;38.10;;;;;;;;;;6286782;28;20036;-68
2022/10/16 05:37:32;;;;;;;96.05;38.90;;;;;;;;;;6283679;28;20041;-65
2022/10/16 05:40:32;;;;;;;105.07;43.05;;;;;;;;;;6289728;28;20098;-67
2022/10/16 05:43:33;;;;;;;99.97;39.85;;;;;;;;;;6288808;28;20041;-65
2022/10/16 05:46:33;;;;;;;100.85;40.28;;;;;;;;;;6285078;28;20502;-65
2022/10/16 05:49:34;;;;;;;95.90;41.10;;;;;;;;;;6287896;28;20487;-68
2022/10/16 05:52:35;;;;;;;97.22;38.90;;;;;;;;;;6285256;28;20599;-65
2022/10/16 05:55:36;;;;;;;87.53;37.35;;;;;;;;;;6283642;28;20060;-68
2022/10/16 05:58:37;;;;;;;96.72;39.05;;;;;;;;;;6284774;28;20510;-66
2022/10/16 06:01:38;;;;;;;96.40;40.45;;;;;;;;;;6290046;28;20055;-67
2022/10/16 06:04:38;;;;;;;94.15;37.90;;;;;;;;;;6287345;28;20135;-65
2022/10/16 06:07:39;;;;;;;90.63;38.53;;;;;;;;;;6289556;28;20040;-66
2022/10/16 06:10:39;;;;;;;90.18;36.92;;;;;;;;;;6290730;28;20076;-67
2022/10/16 06:13:45;;;;;;;92.53;37.90;;;;;;;;;;6289608;28;20040;-66
2022/10/16 06:16:46;;;;;;;95.00;38.63;;;;;;;;;;6286932;28;20094;-66
2022/10/16 06:19:46;;;;;;;88.35;36.22;;;;;;;;;;6289300;28;20099;-66
2022/10/16 06:22:47;;;;;;;95.30;36.67;;;;;;;;;;6289834;28;20045;-65
2022/10/16 06:25:47;;;;;;;93.43;36.95;;;;;;;;;;6291168;28;20094;-65
2022/10/16 06:28:49;;;;;;;86.78;36.42;;;;;;;;;;6294579;28;20062;-65
2022/10/16 06:31:49;;;;;;;92.97;37.47;;;;;;;;;;6296249;28;20131;-66
2022/10/16 06:34:50;;;;;;;84.68;35.58;;;;;;;;;;6296135;28;20411;-66
2022/10/16 06:37:52;;;;;;;85.78;36.10;;;;;;;;;;6290769;28;20423;-63
2022/10/16 06:40:53;;;;;;;86.95;36.65;;;;;;;;;;6288852;28;20060;-66
2022/10/16 06:43:54;;;;;;;94.70;38.47;;;;;;;;;;6290080;28;20059;-66
2022/10/16 06:46:54;;;;;;;101.80;37.45;;;;;;;;;;6287290;28;20059;-65
2022/10/16 06:49:55;;;;;;;88.15;37.10;;;;;;;;;;6288672;28;20135;-64
2022/10/16 06:52:55;;;;;;;109.95;39.03;;;;;;;;;;6289189;28;20167;-67
2022/10/16 06:55:57;;;;;;;98.38;38.53;;;;;;;;;;6291243;28;20048;-65
2022/10/16 06:58:57;;;;;;;97.72;36.83;;;;;;;;;;6289229;28;20072;-67
2022/10/16 07:01:58;;;;;;;103.00;40.15;;;;;;;;;;6295367;28;20098;-65
2022/10/16 07:04:58;;;;;;;81.20;33.55;;;;;;;;;;6295550;28;20468;-66
2022/10/16 07:07:59;;;;;;;80.78;31.85;;;;;;;;;;6293271;28;20488;-65
2022/10/16 07:11:01;;;;;;;96.85;34.63;;;;;;;;;;6295752;28;20572;-66
2022/10/16 07:14:02;;;;;;;95.20;32.70;;;;;;;;;;6294978;28;20053;-66
2022/10/16 07:17:03;;;;;;;91.22;34.33;;;;;;;;;;6293882;28;20059;-66
2022/10/16 07:20:04;;;;;;;78.53;30.52;;;;;;;;;;6295227;28;20052;-66
2022/10/16 07:23:05;;;;;;;70.67;29.20;;;;;;;;;;6295124;28;20060;-68
2022/10/16 07:26:06;;;;;;;81.82;31.23;;;;;;;;;;6292364;28;20056;-67
2022/10/16 07:29:14;;;;;;;72.32;28.23;;;;;;;;;;6293959;28;20508;-68
2022/10/16 07:32:15;;;;;;;104.65;37.67;;;;;;;;;;6281417;28;20135;-67
2022/10/16 07:35:15;;;;;;;58.42;22.70;;;;;;;;;;6294496;28;20059;-68
2022/10/16 07:38:16;;;;;;;48.00;21.83;;;;;;;;;;6292876;28;20076;-66
2022/10/16 07:41:19;;;;;;;47.63;20.70;;;;;;;;;;6295062;28;20044;-66
2022/10/16 07:44:20;;;;;;;47.00;20.85;;;;;;;;;;6294271;28;20068;-66
2022/10/16 07:47:20;;;;;;;47.03;20.17;;;;;;;;;;6292097;28;20046;-66
2022/10/16 07:50:21;;;;;;;43.47;19.83;;;;;;;;;;6294844;28;20143;-65
2022/10/16 07:53:21;;;;;;;54.55;19.98;;;;;;;;;;6294499;28;20060;-67
2022/10/16 07:56:22;;;;;;;41.08;18.23;;;;;;;;;;6292774;28;20399;-66
2022/10/16 07:59:22;;;;;;;42.80;19.02;;;;;;;;;;6293224;28;20090;-66
2022/10/16 08:02:23;;;;;;;45.17;18.17;;;;;;;;;;6293937;28;20044;-67
2022/10/16 08:05:24;;;;;;;43.78;18.88;;;;;;;;;;6291960;28;20074;-66
2022/10/16 08:08:24;;;;;;;44.05;18.48;;;;;;;;;;6288586;28;20040;-68
2022/10/16 08:11:25;;;;;;;43.85;20.13;;;;;;;;;;6284649;28;20056;-68
2022/10/16 08:14:25;;;;;;;50.78;20.70;;;;;;;;;;6286289;28;20068;-68
2022/10/16 08:17:27;;;;;;;41.53;20.23;;;;;;;;;;6282784;28;20040;-69
2022/10/16 08:20:30;;;;;;;48.95;21.30;;;;;;;;;;6287726;28;20060;-66
2022/10/16 08:23:31;;;;;;;45.10;20.02;;;;;;;;;;6287951;28;20143;-66
2022/10/16 08:26:31;;;;;;;48.08;19.88;;;;;;;;;;6286108;28;20613;-66
2022/10/16 08:29:33;;;;;;;40.92;19.42;;;;;;;;;;6282448;28;20044;-66
2022/10/16 08:32:34;;;;;;;;;;;;;;;;;;6284881;28;20127;-66
2022/10/16 08:35:34;;;;;;;41.63;18.85;;;;;;;;;;6291631;28;19940;-67
2022/10/16 08:38:35;;;;;;;37.40;18.27;;;;;;;;;;6286262;28;20556;-67
2022/10/16 08:41:55;;;;;;;39.78;18.73;;;;;;;;;;6290190;28;20044;-67
2022/10/16 08:45:12;;;;;;;39.33;18.35;;;;;;;;;;6288209;28;20479;-68
2022/10/16 08:48:25;;;;;;;44.20;18.13;;;;;;;;;;6285364;28;20084;-66
2022/10/16 08:51:32;;;;;;;37.78;18.33;;;;;;;;;;6286193;28;20068;-66
2022/10/16 08:54:41;;;;;;;42.40;19.38;;;;;;;;;;6283075;28;20063;-68
2022/10/16 08:57:42;;;;;;;44.83;20.08;;;;;;;;;;6281862;28;20525;-67
2022/10/16 09:00:46;;;;;;;44.72;18.65;;;;;;;;;;6282410;28;20094;-66
2022/10/16 09:04:31;;;;;;;43.65;20.15;;;;;;;;;;6289053;28;20146;-65
2022/10/16 09:07:58;;;;;;;47.97;19.98;;;;;;;;;;6287707;28;20049;-66
2022/10/16 09:11:18;;;;;;;43.88;18.67;;;;;;;;;;6284677;28;20182;-66
2022/10/16 09:14:55;;;;;;;42.55;19.20;;;;;;;;;;6286241;28;20052;-66
2022/10/16 09:18:12;;;;;;;40.15;18.27;;;;;;;;;;6286280;28;20143;-66
2022/10/16 09:21:18;;;;;;;39.65;18.27;;;;;;;;;;6285480;28;20040;-68
2022/10/16 09:24:23;;;;;;;44.30;18.30;;;;;;;;;;6283456;28;20052;-66
2022/10/16 09:27:24;;;;;;;35.35;16.40;;;;;;;;;;6284775;28;20052;-68
2022/10/16 09:30:29;;;;;;;43.35;19.08;;;;;;;;;;6288214;28;20060;-67
2022/10/16 09:33:35;;;;;;;35.63;16.77;;;;;;;;;;6284208;28;20072;-66
2022/10/16 09:36:41;;;;;;;32.75;16.65;;;;;;;;;;6289677;28;20083;-67
2022/10/16 09:39:53;;;;;;;37.15;16.27;;;;;;;;;;6280322;28;21040;-67
2022/10/16 09:43:01;;;;;;;32.95;15.45;;;;;;;;;;6262485;28;20554;-66
2022/10/16 09:46:07;;;;;;;38.55;16.42;;;;;;;;;;6278372;28;20063;-65
2022/10/16 09:49:22;;;;;;;31.33;14.65;;;;;;;;;;6268861;28;20054;-66
2022/10/16 09:52:23;;;;;;;29.38;15.30;;;;;;;;;;6266409;28;20511;-67
2022/10/16 09:55:24;;;;;;;28.05;15.55;;;;;;;;;;6270809;28;20102;-66
2022/10/16 09:58:25;;;;;;;30.20;15.40;;;;;;;;;;6274165;28;20491;-66
2022/10/16 10:01:37;;;;;;;30.70;14.10;;;;;;;;;;6271257;28;20071;-64
2022/10/16 10:04:48;;;;;;;30.58;14.50;;;;;;;;;;6274312;28;20053;-65
2022/10/16 10:08:02;;;;;;;27.33;13.38;;;;;;;;;;6275146;28;20129;-66
2022/10/16 10:11:04;;;;;;;26.98;14.68;;;;;;;;;;6271955;28;20094;-66
2022/10/16 10:14:13;;;;;;;29.27;13.95;;;;;;;;;;6275202;28;20056;-66
2022/10/16 10:17:20;;;;;;;28.15;14.20;;;;;;;;;;6274952;28;20081;-66
2022/10/16 10:20:23;;;;;;;32.03;14.48;;;;;;;;;;6272571;28;20407;-67
2022/10/16 10:23:26;;;;;;;31.10;14.80;;;;;;;;;;6268089;28;20399;-66
2022/10/16 10:26:29;;;;;;;28.23;13.85;;;;;;;;;;6268580;28;20049;-65
2022/10/16 10:30:08;;;;;;;28.70;14.50;;;;;;;;;;6266177;28;20064;-66
2022/10/16 10:33:28;;;;;;;29.98;13.38;;;;;;;;;;6266713;28;20711;-65
2022/10/16 10:36:37;;;;;;;27.95;12.95;;;;;;;;;;6263622;28;20563;-67
2022/10/16 10:39:55;;;;;;;31.55;13.57;;;;;;;;;;6266409;28;20087;-68
2022/10/16 10:43:10;;;;;;;29.00;13.65;;;;;;;;;;6267241;28;20040;-67
2022/10/16 10:46:29;;;;;;;29.30;14.05;;;;;;;;;;6266927;28;20726;-67
2022/10/16 10:49:49;;;;;;;31.02;14.60;;;;;;;;;;6264936;28;20083;-67
2022/10/16 10:53:11;;;;;;;28.10;14.10;;;;;;;;;;6265087;28;20395;-66
2022/10/16 10:56:49;;;;;;;31.67;13.90;;;;;;;;;;6263157;28;20044;-69
2022/10/16 11:00:18;;;;;;;31.48;13.25;;;;;;;;;;6266277;28;20048;-66
2022/10/16 11:03:31;;;;;;;28.27;13.23;;;;;;;;;;6267460;28;20143;-67
2022/10/16 11:06:47;;;;;;;29.08;13.32;;;;;;;;;;6267098;28;20044;-66
2022/10/16 11:09:52;;;;;;;26.50;13.70;;;;;;;;;;6261321;28;20041;-67
2022/10/16 11:13:02;;;;;;;24.70;13.18;;;;;;;;;;6268403;28;20406;-66
2022/10/16 11:16:28;;;;;;;25.80;12.95;;;;;;;;;;6266330;28;21364;-67
2022/10/16 11:19:54;;;;;;;29.77;14.40;;;;;;;;;;6264414;28;20072;-69
2022/10/16 11:22:58;;;;;;;29.13;13.95;;;;;;;;;;6273386;28;20082;-67
2022/10/16 11:26:06;;;;;;;29.40;13.50;;;;;;;;;;6271045;28;20052;-69
2022/10/16 11:29:16;;;;;;;33.63;14.63;;;;;;;;;;6270676;28;20067;-68
2022/10/16 11:32:52;;;;;;;31.13;13.88;;;;;;;;;;6273697;28;20049;-66
2022/10/16 11:36:02;;;;;;;34.92;15.18;;;;;;;;;;6263273;28;20076;-70
2022/10/16 11:39:15;;;;;;;28.70;14.07;;;;;;;;;;6269433;28;20113;-67
2022/10/16 11:42:41;;;;;;;29.08;13.98;;;;;;;;;;6276129;28;20423;-68
2022/10/16 11:45:46;;;;;;;28.48;14.15;;;;;;;;;;6273864;28;20049;-70
2022/10/16 11:49:22;;;;;;;32.13;14.02;;;;;;;;;;6269335;28;20041;-67
2022/10/16 11:52:36;;;;;;;33.63;14.93;;;;;;;;;;6229027;28;20474;-65
2022/10/16 11:55:40;;;;;;;29.40;14.18;;;;;;;;;;6270847;28;20075;-68
2022/10/16 11:58:56;;;;;;;33.30;15.07;;;;;;;;;;6264659;28;20065;-71
2022/10/16 12:02:26;;;;;;;28.98;14.38;;;;;;;;;;6265889;28;20044;-68
2022/10/16 12:05:47;;;;;;;29.52;13.38;;;;;;;;;;6264512;28;20258;-68
2022/10/16 12:08:48;;;;;;;28.58;14.20;;;;;;;;;;6272799;28;20065;-66
2022/10/16 12:11:48;;;;;;;30.15;14.90;;;;;;;;;;6268657;28;20076;-68
2022/10/16 12:15:17;;;;;;;29.90;14.17;;;;;;;;;;6263747;28;20387;-60
2022/10/16 12:18:23;;;;;;;30.90;14.23;;;;;;;;;;6269240;28;20053;-65
2022/10/16 12:21:30;;;;;;;30.65;16.23;;;;;;;;;;6264454;28;20132;-65
2022/10/16 12:24:32;;;;;;;26.52;13.75;;;;;;;;;;6270354;28;20565;-64
2022/10/16 12:27:33;;;;;;;31.85;14.68;;;;;;;;;;6272125;28;20049;-66
2022/10/16 12:30:36;;;;;;;32.28;14.70;;;;;;;;;;6269834;28;20465;-66
2022/10/16 12:33:41;;;;;;;30.67;14.43;;;;;;;;;;6266764;28;20048;-65
2022/10/16 12:36:41;;;;;;;30.52;14.50;;;;;;;;;;6269114;28;20053;-66
2022/10/16 12:39:42;;;;;;;31.37;13.87;;;;;;;;;;6268744;28;20059;-65
2022/10/16 12:42:43;;;;;;;29.63;14.75;;;;;;;;;;6272458;28;20067;-65
2022/10/16 12:45:45;;;;;;;30.77;14.27;;;;;;;;;;6270811;28;20529;-65
2022/10/16 12:48:47;;;;;;;27.75;14.52;;;;;;;;;;6267779;28;20151;-67
2022/10/16 12:51:48;;;;;;;32.92;15.57;;;;;;;;;;6265549;28;20110;-65
2022/10/16 12:54:50;;;;;;;33.07;15.30;;;;;;;;;;6269722;28;20057;-64
2022/10/16 12:57:56;;;;;;;33.55;15.27;;;;;;;;;;6265333;28;20063;-65
2022/10/16 13:01:01;;;;;;;32.53;14.95;;;;;;;;;;6262142;28;20045;-65
2022/10/16 13:04:34;;;;;;;28.98;15.40;;;;;;;;;;6269771;28;20049;-65
2022/10/16 13:07:58;;;;;;;29.98;14.40;;;;;;;;;;6272780;28;20147;-65
2022/10/16 13:11:01;;;;;;;35.90;15.55;;;;;;;;;;6268279;28;20820;-64
2022/10/16 13:14:31;;;;;;;32.78;15.95;;;;;;;;;;6266368;28;20143;-64
2022/10/16 13:18:04;;;;;;;32.47;15.48;;;;;;;;;;6265500;28;20136;-65
2022/10/16 13:21:33;;;;;;;30.88;14.70;;;;;;;;;;6266697;28;20125;-66
2022/10/16 13:25:10;;;;;;;35.33;15.48;;;;;;;;;;6266648;28;20060;-65
2022/10/16 13:28:12;;;;;;;31.77;15.65;;;;;;;;;;6269793;28;20079;-64
2022/10/16 13:31:26;;;;;;;;;;;;;;;;;;6268533;28;20045;-63
2022/10/16 13:34:28;;;;;;;34.72;16.02;;;;;;;;;;6274982;28;19927;-65
2022/10/16 13:37:28;;;;;;;32.05;15.77;;;;;;;;;;6268795;28;20051;-66
2022/10/16 13:40:29;;;;;;;30.07;15.00;;;;;;;;;;6270267;28;20615;-66
2022/10/16 13:43:45;;;;;;;30.00;14.33;;;;;;;;;;6266018;28;20133;-65
2022/10/16 13:46:45;;;;;;;33.65;17.10;;;;;;;;;;6269516;28;20068;-67
2022/10/16 13:49:46;;;;;;;34.43;16.53;;;;;;;;;;6266463;28;20051;-65
2022/10/16 13:52:47;;;;;;;33.77;15.27;;;;;;;;;;6274115;28;20475;-66
2022/10/16 13:55:47;;;;;;;32.20;16.27;;;;;;;;;;6273445;28;20095;-63
2022/10/16 13:58:59;;;;;;;30.83;16.00;;;;;;;;;;6270222;28;20132;-65
2022/10/16 14:02:05;;;;;;;;;;;;;;;;;;6271202;28;20147;-65
2022/10/16 14:05:10;;;;;;;29.10;15.40;;;;;;;;;;6272764;28;20050;-64
2022/10/16 14:08:11;;;;;;;40.65;17.92;;;;;;;;;;6267484;28;20064;-63
2022/10/16 14:11:12;;;;;;;31.95;16.85;;;;;;;;;;6267765;28;20053;-63
2022/10/16 14:14:13;;;;;;;40.33;16.83;;;;;;;;;;6268491;28;20125;-63
2022/10/16 14:17:35;;;;;;;41.20;18.88;;;;;;;;;;6267913;28;20102;-64
2022/10/16 14:20:35;;;;;;;36.37;17.60;;;;;;;;;;6265032;28;20530;-64
2022/10/16 14:23:39;;;;;;;49.53;21.00;;;;;;;;;;6267490;28;20298;-65
2022/10/16 14:26:44;;;;;;;37.65;17.77;;;;;;;;;;6266435;28;20057;-63
2022/10/16 14:29:44;;;;;;;43.83;19.17;;;;;;;;;;6272487;28;20148;-65
2022/10/16 14:33:05;;;;;;;52.67;20.13;;;;;;;;;;6268983;28;20063;-65
2022/10/16 14:36:09;;;;;;;51.57;21.03;;;;;;;;;;6271223;28;20515;-65
2022/10/16 14:39:23;;;;;;;32.03;16.38;;;;;;;;;;6273269;28;20068;-64
2022/10/16 14:42:25;;;;;;;41.15;19.55;;;;;;;;;;6266782;28;20067;-62
2022/10/16 14:45:32;;;;;;;37.25;17.52;;;;;;;;;;6269139;28;20160;-63
2022/10/16 14:48:33;;;;;;;32.35;17.30;;;;;;;;;;6273601;28;20506;-66
2022/10/16 14:51:34;;;;;;;40.70;19.90;;;;;;;;;;6271491;28;20106;-64
2022/10/16 14:54:34;;;;;;;35.83;18.10;;;;;;;;;;6272391;28;20051;-62
2022/10/16 14:57:37;;;;;;;43.63;25.17;;;;;;;;;;6268773;28;20063;-62
2022/10/16 15:00:38;;;;;;;36.15;17.83;;;;;;;;;;6272097;28;20059;-63
2022/10/16 15:03:38;;;;;;;33.03;16.97;;;;;;;;;;6274315;28;20052;-64
2022/10/16 15:06:39;;;;;;;37.47;20.00;;;;;;;;;;6271673;28;20055;-63
2022/10/16 15:09:40;;;;;;;33.47;17.13;;;;;;;;;;6274890;28;20048;-64
2022/10/16 15:12:41;;;;;;;37.57;17.37;;;;;;;;;;6272892;28;20084;-63
2022/10/16 15:15:44;;;;;;;36.10;18.20;;;;;;;;;;6273170;28;20074;-64
2022/10/16 15:18:45;;;;;;;36.28;17.67;;;;;;;;;;6270167;28;20083;-63
2022/10/16 15:21:46;;;;;;;36.57;17.00;;;;;;;;;;6269703;28;20218;-64
2022/10/16 15:24:47;;;;;;;36.72;19.00;;;;;;;;;;6273493;28;20135;-63
2022/10/16 15:27:47;;;;;;;35.00;18.03;;;;;;;;;;6272932;28;20869;-64
2022/10/16 15:30:53;;;;;;;45.77;21.63;;;;;;;;;;6273431;28;20076;-63
2022/10/16 15:33:58;;;;;;;43.28;19.80;;;;;;;;;;6267993;28;20080;-63
2022/10/16 15:37:02;;;;;;;44.45;19.88;;;;;;;;;;6268216;28;20047;-64
2022/10/16 15:40:03;;;;;;;39.83;18.73;;;;;;;;;;6266188;28;20143;-62
2022/10/16 15:43:04;;;;;;;39.77;20.90;;;;;;;;;;6268941;28;20076;-63
2022/10/16 15:46:09;;;;;;;74.20;33.70;;;;;;;;;;6267600;28;20560;-64
2022/10/16 15:49:11;;;;;;;58.08;25.23;;;;;;;;;;6273846;28;20129;-64
2022/10/16 15:52:11;;;;;;;55.83;27.13;;;;;;;;;;6276307;28;20490;-63
2022/10/16 15:55:14;;;;;;;51.93;23.27;;;;;;;;;;6275018;28;20503;-63
2022/10/16 15:58:14;;;;;;;56.88;25.55;;;;;;;;;;6275438;28;21542;-62
2022/10/16 16:01:16;;;;;;;49.13;21.10;;;;;;;;;;6271192;28;20098;-63
2022/10/16 16:04:17;;;;;;;49.75;22.85;;;;;;;;;;6270796;28;20167;-64
2022/10/16 16:07:18;;;;;;;66.28;31.15;;;;;;;;;;6268296;28;20099;-63
2022/10/16 16:10:20;;;;;;;63.20;27.83;;;;;;;;;;6273975;28;20049;-62
2022/10/16 16:13:21;;;;;;;53.30;26.33;;;;;;;;;;6273931;28;20048;-62
2022/10/16 16:16:21;;;;;;;50.13;24.60;;;;;;;;;;6273385;28;20063;-62
2022/10/16 16:19:22;;;;;;;47.97;22.48;;;;;;;;;;6275403;28;20842;-60
2022/10/16 16:22:23;;;;;;;49.65;23.15;;;;;;;;;;6275653;28;20129;-62
2022/10/16 16:25:24;;;;;;;53.73;24.63;;;;;;;;;;6274222;28;20052;-65
2022/10/16 16:28:26;;;;;;;61.10;26.92;;;;;;;;;;6276080;28;20499;-61
2022/10/16 16:31:28;;;;;;;58.20;25.17;;;;;;;;;;6269678;28;20136;-62
2022/10/16 16:34:29;;;;;;;;;;;;;;;;;;6272202;28;20079;-61
2022/10/16 16:37:30;;;;;;;65.38;28.98;;;;;;;;;;6270144;28;19932;-65
2022/10/16 16:40:31;;;;;;;64.00;26.73;;;;;;;;;;6254599;28;20095;-65
2022/10/16 16:43:31;;;;;;;62.95;29.15;;;;;;;;;;6274465;28;20514;-64
2022/10/16 16:46:33;;;;;;;53.90;25.60;;;;;;;;;;6272935;28;20048;-69
2022/10/16 16:49:34;;;;;;;58.78;27.02;;;;;;;;;;6266088;28;20155;-62
2022/10/16 16:52:35;;;;;;;66.55;29.58;;;;;;;;;;6270757;28;20106;-66
2022/10/16 16:55:36;;;;;;;61.28;27.52;;;;;;;;;;6271752;28;20051;-66
2022/10/16 16:58:36;;;;;;;64.07;29.95;;;;;;;;;;6269228;28;20387;-65
2022/10/16 17:01:37;;;;;;;54.78;26.85;;;;;;;;;;6268878;28;20419;-66
2022/10/16 17:04:37;;;;;;;54.42;25.85;;;;;;;;;;6262376;28;20110;-65
2022/10/16 17:07:40;;;;;;;61.75;30.30;;;;;;;;;;6268065;28;20135;-65
2022/10/16 17:10:44;;;;;;;83.18;38.63;;;;;;;;;;6266816;28;20062;-64
2022/10/16 17:13:45;;;;;;;88.18;38.10;;;;;;;;;;6264425;28;20183;-69
2022/10/16 17:16:47;;;;;;;55.23;24.50;;;;;;;;;;6268654;28;20109;-63
2022/10/16 17:19:51;;;;;;;73.85;31.63;;;;;;;;;;6267551;28;20105;-65
2022/10/16 17:22:52;;;;;;;59.88;24.90;;;;;;;;;;6269338;28;20482;-63
2022/10/16 17:25:53;;;;;;;52.20;23.87;;;;;;;;;;6274359;28;20133;-65
2022/10/16 17:28:56;;;;;;;59.28;23.73;;;;;;;;;;6265695;28;20313;-64
2022/10/16 17:31:58;;;;;;;48.33;21.90;;;;;;;;;;6267346;28;20829;-64
2022/10/16 17:34:58;;;;;;;49.08;22.38;;;;;;;;;;6266177;28;20055;-64
2022/10/16 17:37:59;;;;;;;53.85;23.80;;;;;;;;;;6273850;28;20061;-64
2022/10/16 17:41:16;;;;;;;76.68;32.75;;;;;;;;;;6268187;28;20049;-64
2022/10/16 17:44:21;;;;;;;75.20;34.60;;;;;;;;;;6271501;28;20076;-64
2022/10/16 17:47:21;;;;;;;73.63;35.20;;;;;;;;;;6269549;28;20159;-63
2022/10/16 17:50:22;;;;;;;75.93;39.33;;;;;;;;;;6263574;28;20072;-64
2022/10/16 17:53:22;;;;;;;64.38;32.65;;;;;;;;;;6271465;28;20130;-66
2022/10/16 17:56:24;;;;;;;51.47;24.00;;;;;;;;;;6268656;28;20044;-66
2022/10/16 17:59:25;;;;;;;53.13;24.67;;;;;;;;;;6271034;28;20049;-66